• Join FlightAware (Why Join?)
  • Login
  • US Flag 
07:50PM EST


 

Airport Tracker/Info


-or-


 

Live Flight TrackerFlight Track Log ✈ HAL118 ✈ 25-Apr-2013 ✈ PHNL - PHKO / KOA

Flight Track Log - Related Links

Times and Time Zones

All times are in EDT time to prevent confusion due to time zone crossing. See the HAL118 flight status page for this flight to view local times or setup timezone preferences in your user account.

Time Position Orientation Groundspeed Altitude Reporting Facility
EDT Latitude Longitude Course Direction KTS MPH feet Rate Location/Type
01:21PM 21.3167 -157.9000 118° Southeast 180 207 1,100  Level Honolulu Center
01:22PM 21.2667 -157.8667 148° Southeast 220 253 2,700 1,620 Climbing Honolulu Center
01:23PM 21.2167 -157.8333 148° Southeast 260 299 4,400 2,100 Climbing Honolulu Center
01:24PM 21.1882 -157.7205 113° Southeast  Level FlightAware Approximate
01:24PM 21.1833 -157.7500 113° Southeast 260 299 7,000  Level Honolulu Center
01:25PM 21.1547 -157.6487 126° Southeast  Level FlightAware Approximate
01:25PM 21.1500 -157.6833 118° Southeast 280 322 9,200  Level Honolulu Center
01:26PM 21.1109 -157.5830 126° Southeast  Level FlightAware Approximate
01:26PM 21.1167 -157.6000 113° Southeast 310 357 10,900  Level Honolulu Center
01:27PM 21.0733 -157.5133 118° Southeast  Level FlightAware Approximate
01:27PM 21.0667 -157.5000 118° Southeast 350 403 12,100  Level Honolulu Center
01:28PM 20.9833 -157.4333 143° Southeast 380 437 14,000 1,920 Climbing Honolulu Center
01:29PM 20.9000 -157.3500 137° Southeast 380 437 16,000 1,800 Climbing Honolulu Center
01:30PM 20.8333 -157.2833 137° Southeast 400 460 17,600 1,740 Climbing Honolulu Center
01:31PM 20.7500 -157.2167 143° Southeast 400 460 19,500 1,680 Climbing Honolulu Center
01:32PM 20.6500 -157.1167 137° Southeast 400 460 21,000 720 Climbing Honolulu Center
01:33PM 20.5667 -157.0333 137° Southeast 400 460 21,000  Level Honolulu Center
01:34PM 20.4833 -156.9667 143° Southeast 400 460 21,000  Level Honolulu Center
01:35PM 20.4000 -156.8833 137° Southeast 400 460 21,000  Level Honolulu Center
01:36PM 20.3167 -156.8000 137° Southeast 400 460 21,000  Level Honolulu Center
01:37PM 20.2333 -156.7333 143° Southeast 400 460 21,000 -1,140 Level Honolulu Center
01:38PM 20.1500 -156.6500 137° Southeast 400 460 18,800 -2,100 Descending Honolulu Center
01:39PM 20.0833 -156.5833 137° Southeast 390 449 16,900 -2,160 Descending Honolulu Center
01:40PM 20.0000 -156.5000 137° Southeast 370 426 14,500 -2,400 Descending Honolulu Center
01:42PM 19.9333 -156.4333 137° Southeast 360 414 12,100 -1,860 Descending Honolulu Center
01:43PM 19.8500 -156.3667 143° Southeast 320 368 10,800 -1,320 Descending Honolulu Center
01:44PM 19.8000 -156.3167 137° Southeast 290 334 9,500 -1,560 Descending Honolulu Center
01:45PM 19.7333 -156.2667 145° Southeast 280 322 7,700 -1,920 Descending Honolulu Center
01:46PM 19.6833 -156.2000 129° Southeast 260 299 5,700 -2,040 Descending Honolulu Center